createdAt,value
2023-04-22T00:00:47.460Z,0.00
2023-04-22T00:01:47.445Z,0.00
2023-04-22T00:02:47.627Z,0.00
2023-04-22T00:03:47.602Z,0.00
2023-04-22T00:04:47.719Z,0.00
2023-04-22T00:05:47.549Z,0.00
2023-04-22T00:06:47.375Z,0.00
2023-04-22T00:07:47.360Z,0.00
2023-04-22T00:08:47.360Z,0.00
2023-04-22T00:09:47.333Z,0.00
2023-04-22T00:10:47.316Z,0.00
2023-04-22T00:11:47.305Z,0.00
2023-04-22T00:12:47.291Z,0.00
2023-04-22T00:13:47.277Z,0.00
2023-04-22T00:14:47.275Z,0.00
2023-04-22T00:15:47.270Z,0.00
2023-04-22T00:16:47.248Z,0.00
2023-04-22T00:17:47.238Z,0.00
2023-04-22T00:18:47.204Z,0.00
2023-04-22T00:19:47.186Z,0.00
2023-04-22T00:20:47.168Z,0.00
2023-04-22T00:21:47.158Z,0.00
2023-04-22T00:22:47.141Z,0.00
2023-04-22T00:23:47.129Z,0.00
2023-04-22T00:24:47.112Z,0.00
2023-04-22T00:25:47.098Z,0.00
2023-04-22T00:26:47.084Z,0.00
2023-04-22T00:27:54.309Z,0.00
2023-04-22T00:29:51.204Z,0.00
2023-04-22T00:30:51.034Z,0.00
2023-04-22T00:32:55.220Z,0.00
2023-04-22T00:33:55.007Z,0.00
2023-04-22T00:35:59.001Z,0.00
2023-04-22T00:36:58.952Z,0.00
2023-04-22T17:46:04.389Z,200.00
2023-04-22T17:47:05.301Z,188.00
2023-04-22T17:48:57.354Z,168.00
2023-04-22T17:49:56.715Z,160.00
2023-04-22T17:51:56.853Z,144.00
2023-04-22T17:52:56.899Z,136.00
2023-04-22T17:53:56.619Z,132.00
2023-04-22T17:54:59.345Z,124.00
2023-04-22T17:55:57.094Z,120.00
2023-04-22T17:56:56.974Z,112.00
2023-04-22T17:57:56.569Z,108.00
2023-04-22T17:58:56.574Z,100.00
2023-04-22T17:59:56.547Z,88.00
2023-04-22T18:00:56.573Z,80.00
2023-04-22T18:01:56.560Z,76.00
2023-04-22T18:02:56.811Z,68.00
2023-04-22T18:03:56.719Z,68.00
2023-04-22T18:04:56.499Z,60.00
2023-04-22T18:05:56.478Z,60.00
2023-04-22T18:06:56.471Z,60.00
2023-04-22T18:07:56.454Z,60.00
2023-04-22T18:08:56.586Z,56.00
2023-04-22T18:09:56.442Z,56.00
2023-04-22T18:10:56.423Z,52.00
2023-04-22T18:11:56.460Z,52.00
2023-04-22T18:12:56.408Z,48.00
2023-04-22T18:13:56.435Z,48.00
2023-04-22T18:14:56.382Z,48.00
2023-04-22T18:15:56.379Z,48.00
2023-04-22T18:16:56.469Z,48.00
2023-04-22T18:17:56.403Z,48.00
2023-04-22T18:18:56.333Z,44.00
2023-04-22T18:20:09.709Z,44.00
2023-04-22T18:20:56.308Z,44.00
2023-04-22T18:22:00.163Z,44.00
2023-04-22T18:22:56.335Z,40.00
2023-04-22T18:23:56.272Z,36.00
2023-04-22T18:24:56.261Z,32.00
2023-04-22T18:25:56.261Z,32.00
2023-04-22T18:26:56.232Z,28.00
2023-04-22T18:27:56.233Z,28.00
2023-04-22T18:28:56.250Z,24.00
2023-04-22T18:29:56.206Z,20.00
2023-04-22T18:30:56.192Z,20.00
2023-04-22T18:31:56.245Z,16.00
2023-04-22T18:32:56.210Z,12.00
2023-04-22T18:33:56.160Z,12.00
2023-04-22T18:34:56.147Z,12.00
2023-04-22T18:35:56.131Z,12.00
2023-04-22T18:36:56.123Z,12.00
2023-04-22T18:37:56.108Z,8.00
2023-04-22T18:38:56.099Z,4.00
2023-04-22T18:39:56.088Z,8.00
2023-04-22T18:40:56.073Z,4.00
2023-04-22T18:41:56.109Z,8.00
2023-04-22T18:42:56.054Z,4.00
2023-04-22T18:43:56.072Z,4.00
2023-04-22T18:44:56.018Z,0.00
2023-04-22T18:45:56.063Z,4.00
2023-04-22T18:46:56.003Z,4.00
2023-04-22T18:47:56.012Z,0.00
2023-04-22T18:48:55.972Z,0.00
2023-04-22T18:49:56.017Z,0.00
2023-04-22T18:50:55.946Z,0.00
2023-04-22T18:51:55.946Z,0.00
2023-04-22T18:52:55.951Z,0.00
2023-04-22T18:53:55.925Z,0.00
2023-04-22T18:54:55.899Z,0.00
2023-04-22T18:55:55.891Z,0.00
2023-04-22T18:56:55.884Z,0.00
2023-04-22T18:57:55.863Z,0.00
2023-04-22T18:58:55.856Z,0.00
2023-04-22T18:59:55.838Z,0.00
2023-04-22T19:00:55.822Z,0.00
2023-04-22T19:01:55.867Z,0.00
2023-04-22T19:02:55.870Z,0.00
2023-04-22T19:03:55.842Z,0.00
2023-04-22T19:04:55.889Z,0.00
2023-04-22T19:05:55.769Z,0.00
2023-04-22T19:06:55.756Z,0.00
2023-04-22T19:07:55.737Z,0.00
2023-04-22T19:08:55.723Z,0.00
2023-04-22T19:09:55.720Z,0.00
2023-04-22T19:10:55.702Z,0.00
2023-04-22T19:11:55.700Z,0.00
2023-04-22T19:12:55.678Z,0.00
2023-04-22T19:13:55.678Z,0.00
2023-04-22T19:14:55.660Z,0.00
2023-04-22T19:15:55.677Z,0.00
2023-04-22T19:16:55.628Z,0.00
2023-04-22T19:17:55.659Z,0.00
2023-04-22T19:18:55.597Z,0.00
2023-04-22T19:19:55.602Z,0.00
2023-04-22T19:20:55.578Z,0.00
2023-04-22T19:21:55.570Z,0.00
2023-04-22T19:22:55.586Z,0.00
2023-04-22T19:23:55.541Z,0.00
2023-04-22T19:24:55.530Z,0.00
2023-04-22T19:25:55.513Z,0.00
2023-04-22T19:26:55.496Z,0.00
2023-04-22T19:27:55.488Z,0.00
2023-04-22T19:28:55.504Z,0.00
2023-04-22T19:29:55.470Z,0.00
2023-04-22T19:30:55.530Z,0.00
2023-04-22T19:31:55.452Z,0.00
2023-04-22T19:32:55.459Z,0.00
2023-04-22T19:33:55.421Z,0.00
2023-04-22T19:34:55.407Z,0.00
2023-04-22T19:35:55.382Z,0.00
2023-04-22T19:36:55.381Z,0.00
2023-04-22T19:37:55.368Z,0.00
2023-04-22T19:38:55.864Z,0.00
2023-04-22T19:39:55.349Z,0.00
2023-04-22T19:40:55.324Z,0.00
2023-04-22T19:41:55.315Z,0.00
2023-04-22T19:42:55.301Z,0.00
2023-04-22T19:43:55.299Z,0.00
2023-04-22T19:44:55.281Z,0.00
2023-04-22T19:45:55.274Z,0.00
2023-04-22T19:46:55.284Z,0.00
2023-04-22T19:47:55.268Z,0.00
2023-04-22T19:48:55.221Z,0.00
2023-04-22T19:49:55.212Z,0.00
2023-04-22T19:50:55.192Z,0.00
2023-04-22T19:51:55.184Z,0.00
2023-04-22T19:52:55.167Z,0.00
2023-04-22T19:53:55.174Z,0.00
2023-04-22T19:54:55.154Z,0.00
2023-04-22T19:55:55.129Z,0.00
2023-04-22T19:56:55.117Z,0.00
2023-04-22T19:57:55.118Z,0.00
2023-04-22T19:58:55.099Z,0.00
2023-04-22T19:59:55.077Z,0.00
2023-04-22T20:00:55.070Z,0.00
2023-04-22T20:01:55.112Z,0.00
2023-04-22T20:02:55.113Z,0.00
2023-04-22T20:03:55.224Z,0.00
2023-04-22T20:04:55.036Z,0.00
2023-04-22T20:05:55.003Z,0.00
2023-04-22T20:06:54.991Z,0.00
2023-04-22T20:07:54.996Z,0.00
2023-04-22T20:08:54.967Z,0.00
2023-04-22T20:09:54.953Z,0.00
2023-04-22T20:10:54.945Z,0.00
2023-04-22T20:11:54.931Z,0.00
2023-04-22T20:12:54.958Z,0.00
2023-04-22T20:13:54.908Z,0.00
2023-04-22T20:14:54.945Z,0.00
2023-04-22T20:15:54.884Z,0.00
2023-04-22T20:16:54.867Z,0.00
2023-04-22T20:17:54.897Z,0.00
2023-04-22T20:18:54.837Z,0.00
2023-04-22T20:19:54.843Z,0.00
2023-04-22T20:20:54.818Z,0.00
2023-04-22T20:21:54.829Z,0.00
2023-04-22T20:22:54.795Z,0.00
2023-04-22T20:23:54.777Z,0.00
2023-04-22T20:24:54.769Z,0.00
2023-04-22T20:25:54.757Z,0.00
2023-04-22T20:26:54.739Z,0.00
2023-04-22T20:27:54.750Z,0.00
2023-04-22T20:28:54.729Z,0.00
2023-04-22T20:29:54.704Z,0.00
2023-04-22T20:30:54.686Z,0.00
2023-04-22T20:31:54.709Z,0.00
2023-04-22T20:32:54.682Z,0.00
2023-04-22T20:33:54.668Z,0.00
2023-04-22T20:34:54.644Z,0.00
2023-04-22T20:35:54.629Z,0.00
2023-04-22T20:36:54.622Z,0.00
2023-04-22T20:37:54.601Z,0.00
2023-04-22T20:38:54.588Z,0.00
2023-04-22T20:39:54.613Z,0.00
2023-04-22T20:40:54.560Z,0.00
2023-04-22T20:41:54.610Z,0.00
2023-04-22T20:42:54.539Z,0.00
2023-04-22T20:43:54.527Z,0.00
2023-04-22T20:44:54.510Z,0.00
2023-04-22T20:45:54.531Z,0.00
2023-04-22T20:46:54.503Z,0.00
2023-04-22T20:47:54.558Z,0.00
2023-04-22T20:48:54.476Z,0.00
2023-04-22T20:49:54.445Z,0.00
2023-04-22T20:50:54.430Z,0.00
2023-04-22T20:51:54.424Z,0.00
2023-04-22T20:52:54.422Z,0.00
2023-04-22T20:53:54.395Z,0.00
2023-04-22T20:54:54.383Z,0.00
2023-04-22T20:55:54.387Z,0.00
2023-04-22T20:56:54.357Z,0.00
2023-04-22T20:57:54.363Z,0.00
2023-04-22T20:58:54.348Z,0.00
2023-04-22T20:59:54.326Z,0.00
2023-04-22T21:00:54.353Z,0.00
2023-04-22T21:01:54.294Z,0.00
2023-04-22T21:02:54.330Z,0.00
2023-04-22T21:03:54.526Z,0.00
2023-04-22T21:04:54.254Z,0.00
2023-04-22T21:05:54.246Z,0.00
2023-04-22T21:06:54.242Z,0.00
2023-04-22T21:07:54.214Z,0.00
2023-04-22T21:08:54.199Z,0.00
2023-04-22T21:09:54.186Z,0.00
2023-04-22T21:10:54.172Z,0.00
2023-04-22T21:11:54.167Z,0.00
2023-04-22T21:12:54.147Z,0.00
2023-04-22T21:13:54.150Z,0.00
2023-04-22T21:14:54.123Z,0.00
2023-04-22T21:15:54.117Z,0.00
2023-04-22T21:16:54.214Z,0.00
2023-04-22T21:17:54.104Z,0.00
2023-04-22T21:18:54.071Z,0.00
2023-04-22T21:19:56.911Z,0.00
2023-04-22T21:20:54.051Z,0.00
2023-04-22T21:21:54.031Z,0.00
2023-04-22T21:22:54.005Z,0.00
2023-04-22T21:23:53.994Z,0.00
2023-04-22T21:24:53.983Z,0.00
2023-04-22T21:25:54.940Z,0.00
2023-04-22T21:26:53.948Z,0.00
2023-04-22T21:27:53.942Z,0.00
2023-04-22T21:28:53.926Z,0.00
2023-04-22T21:29:53.914Z,0.00
2023-04-22T21:30:53.923Z,0.00
2023-04-22T21:32:07.351Z,0.00
2023-04-22T21:32:53.879Z,0.00
2023-04-22T21:33:53.892Z,0.00
2023-04-22T21:34:53.850Z,0.00
2023-04-22T21:35:53.857Z,0.00
2023-04-22T21:36:53.898Z,0.00
2023-04-22T21:37:53.885Z,0.00
2023-04-22T21:38:53.785Z,0.00
2023-04-22T21:39:53.780Z,0.00
2023-04-22T21:40:53.771Z,0.00
2023-04-22T21:41:53.772Z,0.00
2023-04-22T21:42:53.749Z,0.00
2023-04-22T21:43:53.763Z,0.00
2023-04-22T21:44:53.707Z,0.00
2023-04-22T21:45:53.729Z,0.00
2023-04-22T21:46:53.727Z,0.00
2023-04-22T21:47:53.695Z,0.00
2023-04-22T21:48:53.649Z,0.00
2023-04-22T21:49:53.643Z,0.00
2023-04-22T21:50:53.648Z,0.00
2023-04-22T21:51:53.663Z,0.00
2023-04-22T21:52:53.672Z,0.00
2023-04-22T21:53:53.600Z,0.00
2023-04-22T21:54:53.570Z,0.00
2023-04-22T21:55:53.559Z,0.00
2023-04-22T21:56:53.539Z,0.00
2023-04-22T21:57:53.538Z,0.00
2023-04-22T21:58:53.523Z,0.00
2023-04-22T21:59:53.515Z,0.00
2023-04-22T22:00:53.483Z,0.00
2023-04-22T22:01:53.572Z,0.00
2023-04-22T22:02:53.680Z,0.00
2023-04-22T22:03:53.631Z,0.00
2023-04-22T22:04:53.601Z,0.00
2023-04-22T22:05:53.430Z,0.00
2023-04-22T22:06:53.405Z,0.00
2023-04-22T22:07:53.396Z,0.00
2023-04-22T22:08:53.387Z,0.00
2023-04-22T22:09:53.367Z,0.00
2023-04-22T22:10:53.348Z,0.00
2023-04-22T22:11:53.337Z,0.00
2023-04-22T22:12:53.319Z,0.00
2023-04-22T22:13:53.309Z,0.00
2023-04-22T22:14:53.294Z,0.00
2023-04-22T22:15:53.674Z,0.00
2023-04-22T22:16:53.450Z,0.00
2023-04-22T22:17:53.374Z,0.00
2023-04-22T22:18:53.240Z,0.00
2023-04-22T22:19:53.233Z,0.00
2023-04-22T22:20:53.213Z,0.00
2023-04-22T22:21:53.209Z,0.00
2023-04-22T22:22:53.180Z,0.00
2023-04-22T22:23:53.172Z,0.00
2023-04-22T22:24:53.216Z,0.00
2023-04-22T22:25:53.222Z,0.00
2023-04-22T22:26:53.180Z,0.00
2023-04-22T22:27:53.138Z,0.00
2023-04-22T22:28:53.115Z,0.00
2023-04-22T22:29:53.090Z,0.00
2023-04-22T22:30:53.081Z,0.00
2023-04-22T22:31:53.077Z,0.00
2023-04-22T22:32:53.085Z,0.00
2023-04-22T22:33:53.055Z,0.00
2023-04-22T22:34:53.023Z,0.00
2023-04-22T22:35:53.064Z,0.00
2023-04-22T22:36:53.038Z,0.00
2023-04-22T22:37:52.981Z,0.00
2023-04-22T22:38:52.986Z,0.00
2023-04-22T22:39:53.339Z,0.00
2023-04-22T22:40:52.941Z,0.00
2023-04-22T22:41:52.926Z,0.00
2023-04-22T22:42:52.918Z,0.00
2023-04-22T22:43:52.897Z,0.00
2023-04-22T22:44:52.882Z,0.00
2023-04-22T22:45:52.962Z,0.00
2023-04-22T22:46:52.850Z,0.00
2023-04-22T22:47:52.853Z,0.00
2023-04-22T22:48:52.826Z,0.00
2023-04-22T22:49:52.835Z,0.00
2023-04-22T22:50:52.818Z,0.00
2023-04-22T22:51:52.792Z,0.00
2023-04-22T22:52:52.779Z,0.00
2023-04-22T22:53:52.821Z,0.00
2023-04-22T22:54:52.781Z,0.00
2023-04-22T22:55:52.757Z,0.00
2023-04-22T22:56:52.742Z,0.00
2023-04-22T22:57:52.765Z,0.00
2023-04-22T22:58:52.714Z,0.00
2023-04-22T22:59:52.715Z,0.00
2023-04-22T23:00:52.726Z,0.00
2023-04-22T23:01:52.751Z,0.00
2023-04-22T23:02:52.803Z,0.00
2023-04-22T23:03:52.824Z,0.00
2023-04-22T23:04:52.712Z,0.00
2023-04-22T23:05:52.602Z,0.00
2023-04-22T23:06:52.668Z,0.00
2023-04-22T23:07:52.581Z,0.00
2023-04-22T23:08:52.606Z,0.00
2023-04-22T23:09:52.550Z,0.00
2023-04-22T23:10:52.546Z,0.00
2023-04-22T23:11:52.546Z,0.00
2023-04-22T23:12:52.626Z,0.00
2023-04-22T23:13:52.486Z,0.00
2023-04-22T23:14:52.471Z,0.00
2023-04-22T23:15:52.458Z,0.00
2023-04-22T23:16:52.466Z,0.00
2023-04-22T23:17:52.486Z,0.00
2023-04-22T23:18:52.412Z,0.00
2023-04-22T23:19:52.399Z,0.00
2023-04-22T23:20:52.386Z,0.00
2023-04-22T23:21:52.386Z,0.00
